CheckWX is a tool to help pilots better visualize weather data.  It is not intended as a substitute for an official pre-flight weather briefing.

12:19:57 UTC

KSYN METAR
Stanton Airfield Airport
Stanton, Minnesota, USA
Current

44 mins ago

KSYN 221136Z AUTO 00000KT 7SM SCT070 OVC080 M13/M14 A3038 RMK AO2 T11301145
Observed
Feb-22 @ 11:36 UTC
Visibility
7 SM
Flight Rules
VFR
Cloud Levels
  • Scattered at 7,000' AGL
  • Overcast at 8,000' AGL
Temperature
-13°C / 9°F
Dewpoint
-15°C / 5°F
Humidity
85%
Altimeter
30.38" Hg
Pressure
1028.81 hPa
Previous

1 hour ago

KSYN 221115Z AUTO 00000KT 7SM SCT050 BKN065 OVC090 M13/M14 A3038 RMK AO2 T11291145
Observed
Feb-22 @ 11:15 UTC
Visibility
7 SM
Flight Rules
VFR
Cloud Levels
  • Scattered at 5,000' AGL
  • Broken at 6,500' AGL
  • Overcast at 9,000' AGL
Temperature
-13°C / 9°F
Dewpoint
-15°C / 5°F
Humidity
85%
Altimeter
30.38" Hg
Pressure
1028.81 hPa
Previous

1 hour ago

KSYN 221056Z AUTO 00000KT 7SM SCT075 BKN085 M13/M15 A3038 RMK AO2 T11321149
Observed
Feb-22 @ 10:56 UTC
Visibility
7 SM
Flight Rules
VFR
Cloud Levels
  • Scattered at 7,500' AGL
  • Broken at 8,500' AGL
Temperature
-13°C / 9°F
Dewpoint
-15°C / 5°F
Humidity
85%
Altimeter
30.38" Hg
Pressure
1028.81 hPa